sensor_id;sensor_type;location;lat;lon;timestamp;pressure;altitude;pressure_sealevel;temperature
9119;BMP180;4594;50.994;7.126;2023-08-06T00:00:38;99534.00;;;20.30
9119;BMP180;4594;50.994;7.126;2023-08-06T00:03:04;99535.00;;;20.30
9119;BMP180;4594;50.994;7.126;2023-08-06T00:05:30;99545.00;;;20.20
9119;BMP180;4594;50.994;7.126;2023-08-06T00:07:55;99530.00;;;20.20
9119;BMP180;4594;50.994;7.126;2023-08-06T00:10:21;99519.00;;;20.20
9119;BMP180;4594;50.994;7.126;2023-08-06T00:12:47;99528.00;;;20.10
9119;BMP180;4594;50.994;7.126;2023-08-06T00:15:14;99533.00;;;20.10
9119;BMP180;4594;50.994;7.126;2023-08-06T00:17:40;99529.00;;;20.10
9119;BMP180;4594;50.994;7.126;2023-08-06T00:20:07;99510.00;;;20.10
9119;BMP180;4594;50.994;7.126;2023-08-06T00:22:35;99518.00;;;20.10
9119;BMP180;4594;50.994;7.126;2023-08-06T00:25:01;99520.00;;;20.10
9119;BMP180;4594;50.994;7.126;2023-08-06T00:27:27;99505.00;;;20.00
9119;BMP180;4594;50.994;7.126;2023-08-06T00:29:53;99528.00;;;20.00
9119;BMP180;4594;50.994;7.126;2023-08-06T00:32:19;99518.00;;;20.10
9119;BMP180;4594;50.994;7.126;2023-08-06T00:34:45;99531.00;;;20.10
9119;BMP180;4594;50.994;7.126;2023-08-06T00:37:11;99532.00;;;20.10
9119;BMP180;4594;50.994;7.126;2023-08-06T00:39:36;99520.00;;;20.10
9119;BMP180;4594;50.994;7.126;2023-08-06T00:42:03;99529.00;;;20.10
9119;BMP180;4594;50.994;7.126;2023-08-06T00:44:28;99520.00;;;20.10
9119;BMP180;4594;50.994;7.126;2023-08-06T00:46:55;99527.00;;;20.10
9119;BMP180;4594;50.994;7.126;2023-08-06T00:49:21;99534.00;;;20.00
9119;BMP180;4594;50.994;7.126;2023-08-06T00:51:47;99526.00;;;20.10
9119;BMP180;4594;50.994;7.126;2023-08-06T00:54:13;99521.00;;;20.00
9119;BMP180;4594;50.994;7.126;2023-08-06T00:56:41;99528.00;;;20.00
9119;BMP180;4594;50.994;7.126;2023-08-06T00:59:08;99518.00;;;20.00
9119;BMP180;4594;50.994;7.126;2023-08-06T01:01:35;99510.00;;;19.90
9119;BMP180;4594;50.994;7.126;2023-08-06T01:04:01;99509.00;;;19.90
9119;BMP180;4594;50.994;7.126;2023-08-06T01:06:48;99518.00;;;19.90
9119;BMP180;4594;50.994;7.126;2023-08-06T01:15:45;99496.00;;;19.70
9119;BMP180;4594;50.994;7.126;2023-08-06T01:18:12;99502.00;;;19.70
9119;BMP180;4594;50.994;7.126;2023-08-06T01:20:38;99496.00;;;19.70
9119;BMP180;4594;50.994;7.126;2023-08-06T01:23:03;99486.00;;;19.70
9119;BMP180;4594;50.994;7.126;2023-08-06T01:28:54;99496.00;;;19.80
9119;BMP180;4594;50.994;7.126;2023-08-06T01:31:31;99504.00;;;19.80
9119;BMP180;4594;50.994;7.126;2023-08-06T01:33:59;99496.00;;;19.80
9119;BMP180;4594;50.994;7.126;2023-08-06T01:36:27;99484.00;;;19.90
9119;BMP180;4594;50.994;7.126;2023-08-06T01:38:54;99474.00;;;19.90
9119;BMP180;4594;50.994;7.126;2023-08-06T01:41:20;99477.00;;;19.90
9119;BMP180;4594;50.994;7.126;2023-08-06T01:43:45;99467.00;;;19.90
9119;BMP180;4594;50.994;7.126;2023-08-06T01:46:11;99465.00;;;19.90
9119;BMP180;4594;50.994;7.126;2023-08-06T01:48:37;99467.00;;;19.90
9119;BMP180;4594;50.994;7.126;2023-08-06T01:51:06;99481.00;;;19.90
9119;BMP180;4594;50.994;7.126;2023-08-06T01:53:33;99464.00;;;19.90
9119;BMP180;4594;50.994;7.126;2023-08-06T01:55:59;99468.00;;;19.90
9119;BMP180;4594;50.994;7.126;2023-08-06T01:58:24;99472.00;;;20.00
9119;BMP180;4594;50.994;7.126;2023-08-06T02:00:50;99459.00;;;20.00
9119;BMP180;4594;50.994;7.126;2023-08-06T02:03:16;99465.00;;;20.00
9119;BMP180;4594;50.994;7.126;2023-08-06T02:05:42;99460.00;;;20.00
9119;BMP180;4594;50.994;7.126;2023-08-06T02:08:08;99459.00;;;20.00
9119;BMP180;4594;50.994;7.126;2023-08-06T02:10:34;99468.00;;;20.00
9119;BMP180;4594;50.994;7.126;2023-08-06T02:12:59;99461.00;;;20.00
9119;BMP180;4594;50.994;7.126;2023-08-06T02:15:25;99451.00;;;20.00
9119;BMP180;4594;50.994;7.126;2023-08-06T02:17:51;99452.00;;;20.00
9119;BMP180;4594;50.994;7.126;2023-08-06T02:20:17;99458.00;;;20.00
9119;BMP180;4594;50.994;7.126;2023-08-06T02:22:43;99441.00;;;20.00
9119;BMP180;4594;50.994;7.126;2023-08-06T02:25:10;99489.00;;;20.10
9119;BMP180;4594;50.994;7.126;2023-08-06T02:27:37;99452.00;;;20.10
9119;BMP180;4594;50.994;7.126;2023-08-06T02:30:05;99443.00;;;20.10
9119;BMP180;4594;50.994;7.126;2023-08-06T02:32:31;99425.00;;;20.10
9119;BMP180;4594;50.994;7.126;2023-08-06T02:34:57;99473.00;;;20.20
9119;BMP180;4594;50.994;7.126;2023-08-06T02:37:23;99454.00;;;20.20
9119;BMP180;4594;50.994;7.126;2023-08-06T02:39:50;99445.00;;;20.00
9119;BMP180;4594;50.994;7.126;2023-08-06T02:42:15;99435.00;;;20.00
9119;BMP180;4594;50.994;7.126;2023-08-06T02:44:41;99454.00;;;19.90
9119;BMP180;4594;50.994;7.126;2023-08-06T02:47:08;99442.00;;;20.20
9119;BMP180;4594;50.994;7.126;2023-08-06T02:49:34;99434.00;;;20.20
9119;BMP180;4594;50.994;7.126;2023-08-06T02:51:59;99463.00;;;20.20
9119;BMP180;4594;50.994;7.126;2023-08-06T02:54:26;99463.00;;;20.20
9119;BMP180;4594;50.994;7.126;2023-08-06T02:56:51;99441.00;;;20.10
9119;BMP180;4594;50.994;7.126;2023-08-06T02:59:17;99435.00;;;20.20
9119;BMP180;4594;50.994;7.126;2023-08-06T03:01:43;99432.00;;;20.10
9119;BMP180;4594;50.994;7.126;2023-08-06T03:04:10;99435.00;;;20.20
9119;BMP180;4594;50.994;7.126;2023-08-06T03:06:35;99433.00;;;20.20
9119;BMP180;4594;50.994;7.126;2023-08-06T03:09:01;99375.00;;;20.20
9119;BMP180;4594;50.994;7.126;2023-08-06T03:11:27;99416.00;;;20.20
9119;BMP180;4594;50.994;7.126;2023-08-06T03:13:53;99441.00;;;19.90
9119;BMP180;4594;50.994;7.126;2023-08-06T03:16:19;99410.00;;;20.20
9119;BMP180;4594;50.994;7.126;2023-08-06T03:18:45;99439.00;;;20.20
9119;BMP180;4594;50.994;7.126;2023-08-06T03:21:11;99404.00;;;20.20
9119;BMP180;4594;50.994;7.126;2023-08-06T03:23:38;99428.00;;;19.90
9119;BMP180;4594;50.994;7.126;2023-08-06T03:26:06;99372.00;;;19.90
9119;BMP180;4594;50.994;7.126;2023-08-06T03:28:34;99334.00;;;20.20
9119;BMP180;4594;50.994;7.126;2023-08-06T03:31:04;99405.00;;;20.20
9119;BMP180;4594;50.994;7.126;2023-08-06T03:33:30;99408.00;;;20.10
9119;BMP180;4594;50.994;7.126;2023-08-06T03:35:56;99414.00;;;20.10
9119;BMP180;4594;50.994;7.126;2023-08-06T03:38:22;99393.00;;;20.10
9119;BMP180;4594;50.994;7.126;2023-08-06T03:40:48;99402.00;;;20.10
9119;BMP180;4594;50.994;7.126;2023-08-06T03:43:14;99413.00;;;20.10
9119;BMP180;4594;50.994;7.126;2023-08-06T03:45:41;99408.00;;;20.10
9119;BMP180;4594;50.994;7.126;2023-08-06T03:48:08;99396.00;;;20.10
9119;BMP180;4594;50.994;7.126;2023-08-06T03:50:34;99408.00;;;20.10
9119;BMP180;4594;50.994;7.126;2023-08-06T03:53:00;99396.00;;;20.10
9119;BMP180;4594;50.994;7.126;2023-08-06T03:55:26;99399.00;;;20.10
9119;BMP180;4594;50.994;7.126;2023-08-06T03:57:52;99399.00;;;20.10
9119;BMP180;4594;50.994;7.126;2023-08-06T04:00:17;99410.00;;;20.10
9119;BMP180;4594;50.994;7.126;2023-08-06T04:02:43;99396.00;;;20.10
9119;BMP180;4594;50.994;7.126;2023-08-06T04:05:10;99402.00;;;20.10
9119;BMP180;4594;50.994;7.126;2023-08-06T04:07:36;99399.00;;;20.10
9119;BMP180;4594;50.994;7.126;2023-08-06T04:10:04;99405.00;;;20.10
9119;BMP180;4594;50.994;7.126;2023-08-06T04:12:30;99403.00;;;20.10
9119;BMP180;4594;50.994;7.126;2023-08-06T04:14:58;99407.00;;;20.10
9119;BMP180;4594;50.994;7.126;2023-08-06T04:17:24;99407.00;;;20.00
9119;BMP180;4594;50.994;7.126;2023-08-06T04:19:52;99411.00;;;20.00
9119;BMP180;4594;50.994;7.126;2023-08-06T04:22:19;99406.00;;;20.00
9119;BMP180;4594;50.994;7.126;2023-08-06T04:24:45;99410.00;;;20.00
9119;BMP180;4594;50.994;7.126;2023-08-06T04:27:12;99406.00;;;19.90
9119;BMP180;4594;50.994;7.126;2023-08-06T04:29:38;99394.00;;;19.90
9119;BMP180;4594;50.994;7.126;2023-08-06T04:32:07;99389.00;;;19.90
9119;BMP180;4594;50.994;7.126;2023-08-06T04:34:35;99405.00;;;19.90
9119;BMP180;4594;50.994;7.126;2023-08-06T04:37:02;99402.00;;;19.90
9119;BMP180;4594;50.994;7.126;2023-08-06T04:39:28;99401.00;;;19.90
9119;BMP180;4594;50.994;7.126;2023-08-06T04:41:56;99393.00;;;19.90
9119;BMP180;4594;50.994;7.126;2023-08-06T04:44:25;99397.00;;;19.90
9119;BMP180;4594;50.994;7.126;2023-08-06T04:46:51;99401.00;;;19.90
9119;BMP180;4594;50.994;7.126;2023-08-06T04:49:21;99398.00;;;19.90
9119;BMP180;4594;50.994;7.126;2023-08-06T04:51:47;99397.00;;;19.80
9119;BMP180;4594;50.994;7.126;2023-08-06T04:54:12;99390.00;;;19.80
9119;BMP180;4594;50.994;7.126;2023-08-06T04:56:38;99389.00;;;19.80
9119;BMP180;4594;50.994;7.126;2023-08-06T04:59:04;99402.00;;;19.80
9119;BMP180;4594;50.994;7.126;2023-08-06T05:01:29;99386.00;;;19.70
9119;BMP180;4594;50.994;7.126;2023-08-06T05:03:55;99395.00;;;19.80
9119;BMP180;4594;50.994;7.126;2023-08-06T05:06:21;99389.00;;;19.70
9119;BMP180;4594;50.994;7.126;2023-08-06T05:08:46;99398.00;;;19.70
9119;BMP180;4594;50.994;7.126;2023-08-06T05:11:12;99397.00;;;19.70
9119;BMP180;4594;50.994;7.126;2023-08-06T05:13:38;99387.00;;;19.70
9119;BMP180;4594;50.994;7.126;2023-08-06T05:16:03;99395.00;;;19.70
9119;BMP180;4594;50.994;7.126;2023-08-06T05:18:29;99397.00;;;19.70
9119;BMP180;4594;50.994;7.126;2023-08-06T05:20:56;99388.00;;;19.70
9119;BMP180;4594;50.994;7.126;2023-08-06T05:23:22;99392.00;;;19.70
9119;BMP180;4594;50.994;7.126;2023-08-06T05:25:48;99389.00;;;19.70
9119;BMP180;4594;50.994;7.126;2023-08-06T05:28:13;99395.00;;;19.80
9119;BMP180;4594;50.994;7.126;2023-08-06T05:30:40;99401.00;;;19.80
9119;BMP180;4594;50.994;7.126;2023-08-06T05:33:06;99399.00;;;19.80
9119;BMP180;4594;50.994;7.126;2023-08-06T05:35:32;99404.00;;;19.80
9119;BMP180;4594;50.994;7.126;2023-08-06T05:37:58;99398.00;;;19.80
9119;BMP180;4594;50.994;7.126;2023-08-06T05:40:23;99410.00;;;19.80
9119;BMP180;4594;50.994;7.126;2023-08-06T05:42:53;99409.00;;;19.80
9119;BMP180;4594;50.994;7.126;2023-08-06T05:45:19;99412.00;;;19.80
9119;BMP180;4594;50.994;7.126;2023-08-06T05:47:44;99392.00;;;19.90
9119;BMP180;4594;50.994;7.126;2023-08-06T05:50:10;99410.00;;;19.90
9119;BMP180;4594;50.994;7.126;2023-08-06T05:52:36;99407.00;;;19.90
9119;BMP180;4594;50.994;7.126;2023-08-06T05:55:03;99420.00;;;20.00
9119;BMP180;4594;50.994;7.126;2023-08-06T05:57:28;99415.00;;;20.10
9119;BMP180;4594;50.994;7.126;2023-08-06T05:59:54;99401.00;;;20.10
9119;BMP180;4594;50.994;7.126;2023-08-06T06:02:20;99402.00;;;20.20
9119;BMP180;4594;50.994;7.126;2023-08-06T06:04:45;99409.00;;;20.30
9119;BMP180;4594;50.994;7.126;2023-08-06T06:07:11;99408.00;;;20.40
9119;BMP180;4594;50.994;7.126;2023-08-06T06:09:37;99412.00;;;20.40
9119;BMP180;4594;50.994;7.126;2023-08-06T06:12:05;99413.00;;;20.50
9119;BMP180;4594;50.994;7.126;2023-08-06T06:14:31;99408.00;;;20.60
9119;BMP180;4594;50.994;7.126;2023-08-06T06:16:59;99417.00;;;20.60
9119;BMP180;4594;50.994;7.126;2023-08-06T06:19:25;99424.00;;;20.60
9119;BMP180;4594;50.994;7.126;2023-08-06T06:21:51;99420.00;;;20.70
9119;BMP180;4594;50.994;7.126;2023-08-06T06:24:16;99418.00;;;20.70
9119;BMP180;4594;50.994;7.126;2023-08-06T06:26:42;99428.00;;;20.80
9119;BMP180;4594;50.994;7.126;2023-08-06T06:29:08;99424.00;;;20.80
9119;BMP180;4594;50.994;7.126;2023-08-06T06:31:33;99420.00;;;20.80
9119;BMP180;4594;50.994;7.126;2023-08-06T06:33:59;99423.00;;;20.90
9119;BMP180;4594;50.994;7.126;2023-08-06T06:36:24;99432.00;;;20.90
9119;BMP180;4594;50.994;7.126;2023-08-06T06:38:50;99433.00;;;20.90
9119;BMP180;4594;50.994;7.126;2023-08-06T06:41:16;99431.00;;;21.00
9119;BMP180;4594;50.994;7.126;2023-08-06T06:43:42;99444.00;;;21.00
9119;BMP180;4594;50.994;7.126;2023-08-06T06:46:08;99428.00;;;21.00
9119;BMP180;4594;50.994;7.126;2023-08-06T06:48:33;99425.00;;;21.00
9119;BMP180;4594;50.994;7.126;2023-08-06T06:50:59;99438.00;;;21.00
9119;BMP180;4594;50.994;7.126;2023-08-06T06:53:25;99437.00;;;21.10
9119;BMP180;4594;50.994;7.126;2023-08-06T06:56:04;99433.00;;;21.10
9119;BMP180;4594;50.994;7.126;2023-08-06T06:58:33;99435.00;;;21.20
9119;BMP180;4594;50.994;7.126;2023-08-06T07:00:58;99436.00;;;21.20
9119;BMP180;4594;50.994;7.126;2023-08-06T07:03:24;99441.00;;;21.20
9119;BMP180;4594;50.994;7.126;2023-08-06T07:05:50;99433.00;;;21.30
9119;BMP180;4594;50.994;7.126;2023-08-06T07:08:16;99431.00;;;21.30
9119;BMP180;4594;50.994;7.126;2023-08-06T07:10:42;99452.00;;;21.40
9119;BMP180;4594;50.994;7.126;2023-08-06T07:13:09;99445.00;;;21.50
9119;BMP180;4594;50.994;7.126;2023-08-06T07:15:35;99447.00;;;21.60
9119;BMP180;4594;50.994;7.126;2023-08-06T07:18:01;99430.00;;;21.60
9119;BMP180;4594;50.994;7.126;2023-08-06T07:20:27;99442.00;;;21.70
9119;BMP180;4594;50.994;7.126;2023-08-06T07:22:57;99445.00;;;21.70
9119;BMP180;4594;50.994;7.126;2023-08-06T07:25:23;99441.00;;;21.70
9119;BMP180;4594;50.994;7.126;2023-08-06T07:27:49;99452.00;;;21.70
9119;BMP180;4594;50.994;7.126;2023-08-06T07:30:15;99447.00;;;21.70
9119;BMP180;4594;50.994;7.126;2023-08-06T07:32:40;99442.00;;;21.70
9119;BMP180;4594;50.994;7.126;2023-08-06T07:35:06;99452.00;;;21.80
9119;BMP180;4594;50.994;7.126;2023-08-06T07:37:33;99446.00;;;21.80
9119;BMP180;4594;50.994;7.126;2023-08-06T07:39:59;99444.00;;;21.80
9119;BMP180;4594;50.994;7.126;2023-08-06T07:42:25;99455.00;;;21.90
9119;BMP180;4594;50.994;7.126;2023-08-06T07:44:59;99453.00;;;22.00
9119;BMP180;4594;50.994;7.126;2023-08-06T07:47:25;99453.00;;;22.10
9119;BMP180;4594;50.994;7.126;2023-08-06T07:49:52;99457.00;;;22.20
9119;BMP180;4594;50.994;7.126;2023-08-06T07:52:17;99458.00;;;22.20
9119;BMP180;4594;50.994;7.126;2023-08-06T07:54:43;99465.00;;;22.30
9119;BMP180;4594;50.994;7.126;2023-08-06T07:57:09;99468.00;;;22.30
9119;BMP180;4594;50.994;7.126;2023-08-06T07:59:34;99454.00;;;22.40
9119;BMP180;4594;50.994;7.126;2023-08-06T08:02:00;99453.00;;;22.40
9119;BMP180;4594;50.994;7.126;2023-08-06T08:04:26;99466.00;;;22.50
9119;BMP180;4594;50.994;7.126;2023-08-06T08:06:52;99462.00;;;22.50
9119;BMP180;4594;50.994;7.126;2023-08-06T08:09:18;99468.00;;;22.60
9119;BMP180;4594;50.994;7.126;2023-08-06T08:11:44;99459.00;;;22.60
9119;BMP180;4594;50.994;7.126;2023-08-06T08:14:09;99471.00;;;22.70
9119;BMP180;4594;50.994;7.126;2023-08-06T08:16:35;99464.00;;;22.70
9119;BMP180;4594;50.994;7.126;2023-08-06T08:19:01;99463.00;;;22.80
9119;BMP180;4594;50.994;7.126;2023-08-06T08:21:27;99466.00;;;22.80
9119;BMP180;4594;50.994;7.126;2023-08-06T08:23:52;99464.00;;;22.80
9119;BMP180;4594;50.994;7.126;2023-08-06T08:26:18;99471.00;;;22.90
9119;BMP180;4594;50.994;7.126;2023-08-06T08:28:44;99473.00;;;22.90
9119;BMP180;4594;50.994;7.126;2023-08-06T08:31:10;99484.00;;;22.90
9119;BMP180;4594;50.994;7.126;2023-08-06T08:33:38;99479.00;;;22.90
9119;BMP180;4594;50.994;7.126;2023-08-06T08:36:03;99481.00;;;22.90
9119;BMP180;4594;50.994;7.126;2023-08-06T08:38:29;99479.00;;;23.00
9119;BMP180;4594;50.994;7.126;2023-08-06T08:40:55;99472.00;;;23.00
9119;BMP180;4594;50.994;7.126;2023-08-06T08:43:22;99489.00;;;23.00
9119;BMP180;4594;50.994;7.126;2023-08-06T08:45:51;99481.00;;;23.00
9119;BMP180;4594;50.994;7.126;2023-08-06T08:48:18;99492.00;;;23.00
9119;BMP180;4594;50.994;7.126;2023-08-06T08:50:47;99495.00;;;23.00
9119;BMP180;4594;50.994;7.126;2023-08-06T08:53:17;99488.00;;;23.00
9119;BMP180;4594;50.994;7.126;2023-08-06T08:55:47;99490.00;;;23.00
9119;BMP180;4594;50.994;7.126;2023-08-06T08:58:13;99498.00;;;23.00
9119;BMP180;4594;50.994;7.126;2023-08-06T09:00:42;99496.00;;;23.00
9119;BMP180;4594;50.994;7.126;2023-08-06T09:03:08;99492.00;;;23.00
9119;BMP180;4594;50.994;7.126;2023-08-06T09:05:34;99503.00;;;23.00
9119;BMP180;4594;50.994;7.126;2023-08-06T09:08:03;99499.00;;;23.00
9119;BMP180;4594;50.994;7.126;2023-08-06T09:10:30;99505.00;;;23.10
9119;BMP180;4594;50.994;7.126;2023-08-06T09:12:58;99514.00;;;23.20
9119;BMP180;4594;50.994;7.126;2023-08-06T09:15:27;99516.00;;;23.20
9119;BMP180;4594;50.994;7.126;2023-08-06T09:17:54;99500.00;;;23.30
9119;BMP180;4594;50.994;7.126;2023-08-06T09:20:20;99503.00;;;23.40
9119;BMP180;4594;50.994;7.126;2023-08-06T09:22:46;99512.00;;;23.50
9119;BMP180;4594;50.994;7.126;2023-08-06T09:25:22;99508.00;;;23.60
9119;BMP180;4594;50.994;7.126;2023-08-06T09:27:52;99512.00;;;23.60
9119;BMP180;4594;50.994;7.126;2023-08-06T09:30:34;99516.00;;;23.70
9119;BMP180;4594;50.994;7.126;2023-08-06T09:33:01;99504.00;;;23.80
9119;BMP180;4594;50.994;7.126;2023-08-06T09:35:31;99509.00;;;23.90
9119;BMP180;4594;50.994;7.126;2023-08-06T09:38:08;99510.00;;;24.10
9119;BMP180;4594;50.994;7.126;2023-08-06T09:40:36;99521.00;;;24.20
9119;BMP180;4594;50.994;7.126;2023-08-06T09:43:03;99518.00;;;24.30
9119;BMP180;4594;50.994;7.126;2023-08-06T09:45:35;99531.00;;;24.40
9119;BMP180;4594;50.994;7.126;2023-08-06T09:48:05;99529.00;;;24.50
9119;BMP180;4594;50.994;7.126;2023-08-06T09:50:33;99518.00;;;24.60
9119;BMP180;4594;50.994;7.126;2023-08-06T09:53:08;99522.00;;;24.50
9119;BMP180;4594;50.994;7.126;2023-08-06T09:55:34;99525.00;;;24.60
9119;BMP180;4594;50.994;7.126;2023-08-06T09:58:00;99529.00;;;24.70
9119;BMP180;4594;50.994;7.126;2023-08-06T10:00:28;99542.00;;;25.00
9119;BMP180;4594;50.994;7.126;2023-08-06T10:02:59;99543.00;;;25.20
9119;BMP180;4594;50.994;7.126;2023-08-06T10:05:26;99545.00;;;25.20
9119;BMP180;4594;50.994;7.126;2023-08-06T10:07:53;99547.00;;;25.20
9119;BMP180;4594;50.994;7.126;2023-08-06T10:10:21;99541.00;;;25.40
9119;BMP180;4594;50.994;7.126;2023-08-06T10:12:51;99541.00;;;26.20
9119;BMP180;4594;50.994;7.126;2023-08-06T10:15:25;99550.00;;;26.70
9119;BMP180;4594;50.994;7.126;2023-08-06T10:17:56;99542.00;;;27.10
9119;BMP180;4594;50.994;7.126;2023-08-06T10:20:22;99546.00;;;27.30
9119;BMP180;4594;50.994;7.126;2023-08-06T10:25:31;99571.00;;;28.50
9119;BMP180;4594;50.994;7.126;2023-08-06T10:27:58;99568.00;;;28.50
9119;BMP180;4594;50.994;7.126;2023-08-06T10:30:32;99583.00;;;28.10
9119;BMP180;4594;50.994;7.126;2023-08-06T10:33:04;99580.00;;;27.70
9119;BMP180;4594;50.994;7.126;2023-08-06T10:35:36;99589.00;;;27.30
9119;BMP180;4594;50.994;7.126;2023-08-06T10:38:12;99599.00;;;26.90
9119;BMP180;4594;50.994;7.126;2023-08-06T10:43:36;99596.00;;;26.20
9119;BMP180;4594;50.994;7.126;2023-08-06T10:46:22;99608.00;;;25.90
9119;BMP180;4594;50.994;7.126;2023-08-06T10:48:48;99597.00;;;25.60
9119;BMP180;4594;50.994;7.126;2023-08-06T10:51:14;99607.00;;;25.30
9119;BMP180;4594;50.994;7.126;2023-08-06T10:53:46;99606.00;;;25.10
9119;BMP180;4594;50.994;7.126;2023-08-06T10:56:17;99611.00;;;24.80
9119;BMP180;4594;50.994;7.126;2023-08-06T10:58:46;99610.00;;;24.50
9119;BMP180;4594;50.994;7.126;2023-08-06T11:01:12;99623.00;;;24.30
9119;BMP180;4594;50.994;7.126;2023-08-06T11:03:39;99625.00;;;24.10
9119;BMP180;4594;50.994;7.126;2023-08-06T11:06:07;99634.00;;;23.90
9119;BMP180;4594;50.994;7.126;2023-08-06T11:08:36;99628.00;;;23.70
9119;BMP180;4594;50.994;7.126;2023-08-06T11:11:14;99651.00;;;23.50
9119;BMP180;4594;50.994;7.126;2023-08-06T11:13:44;99644.00;;;23.30
9119;BMP180;4594;50.994;7.126;2023-08-06T11:16:17;99662.00;;;23.20
9119;BMP180;4594;50.994;7.126;2023-08-06T11:18:44;99662.00;;;23.00
9119;BMP180;4594;50.994;7.126;2023-08-06T11:21:10;99658.00;;;22.90
9119;BMP180;4594;50.994;7.126;2023-08-06T11:23:37;99663.00;;;22.80
9119;BMP180;4594;50.994;7.126;2023-08-06T11:26:03;99678.00;;;22.60
9119;BMP180;4594;50.994;7.126;2023-08-06T11:28:29;99673.00;;;22.50
9119;BMP180;4594;50.994;7.126;2023-08-06T11:30:55;99681.00;;;22.40
9119;BMP180;4594;50.994;7.126;2023-08-06T11:33:26;99688.00;;;22.30
9119;BMP180;4594;50.994;7.126;2023-08-06T11:35:53;99689.00;;;22.20
9119;BMP180;4594;50.994;7.126;2023-08-06T11:38:20;99690.00;;;22.20
9119;BMP180;4594;50.994;7.126;2023-08-06T11:40:47;99688.00;;;22.10
9119;BMP180;4594;50.994;7.126;2023-08-06T11:43:13;99703.00;;;22.10
9119;BMP180;4594;50.994;7.126;2023-08-06T11:45:40;99703.00;;;22.00
9119;BMP180;4594;50.994;7.126;2023-08-06T11:48:07;99702.00;;;21.90
9119;BMP180;4594;50.994;7.126;2023-08-06T11:50:38;99707.00;;;21.80
9119;BMP180;4594;50.994;7.126;2023-08-06T11:53:07;99712.00;;;21.80
9119;BMP180;4594;50.994;7.126;2023-08-06T11:55:33;99711.00;;;21.80
9119;BMP180;4594;50.994;7.126;2023-08-06T11:58:03;99707.00;;;21.80
9119;BMP180;4594;50.994;7.126;2023-08-06T12:00:31;99693.00;;;21.70
9119;BMP180;4594;50.994;7.126;2023-08-06T12:02:57;99699.00;;;21.70
9119;BMP180;4594;50.994;7.126;2023-08-06T12:05:30;99708.00;;;21.70
9119;BMP180;4594;50.994;7.126;2023-08-06T12:07:58;99712.00;;;21.70
9119;BMP180;4594;50.994;7.126;2023-08-06T12:10:26;99720.00;;;21.60
9119;BMP180;4594;50.994;7.126;2023-08-06T12:12:53;99720.00;;;21.60
9119;BMP180;4594;50.994;7.126;2023-08-06T12:15:19;99727.00;;;21.60
9119;BMP180;4594;50.994;7.126;2023-08-06T12:17:46;99715.00;;;21.60
9119;BMP180;4594;50.994;7.126;2023-08-06T12:20:12;99728.00;;;21.60
9119;BMP180;4594;50.994;7.126;2023-08-06T12:22:38;99724.00;;;21.60
9119;BMP180;4594;50.994;7.126;2023-08-06T12:25:10;99719.00;;;21.60
9119;BMP180;4594;50.994;7.126;2023-08-06T12:27:40;99729.00;;;21.60
9119;BMP180;4594;50.994;7.126;2023-08-06T12:30:08;99727.00;;;21.50
9119;BMP180;4594;50.994;7.126;2023-08-06T12:32:34;99737.00;;;21.50
9119;BMP180;4594;50.994;7.126;2023-08-06T12:35:00;99729.00;;;21.60
9119;BMP180;4594;50.994;7.126;2023-08-06T12:37:30;99736.00;;;21.50
9119;BMP180;4594;50.994;7.126;2023-08-06T12:39:56;99732.00;;;21.60
9119;BMP180;4594;50.994;7.126;2023-08-06T12:42:21;99737.00;;;21.60
9119;BMP180;4594;50.994;7.126;2023-08-06T12:44:51;99735.00;;;21.60
9119;BMP180;4594;50.994;7.126;2023-08-06T12:47:17;99741.00;;;21.60
9119;BMP180;4594;50.994;7.126;2023-08-06T12:49:43;99755.00;;;21.70
9119;BMP180;4594;50.994;7.126;2023-08-06T12:52:09;99754.00;;;21.70
9119;BMP180;4594;50.994;7.126;2023-08-06T12:54:38;99755.00;;;21.80
9119;BMP180;4594;50.994;7.126;2023-08-06T12:57:04;99754.00;;;21.80
9119;BMP180;4594;50.994;7.126;2023-08-06T12:59:31;99760.00;;;21.90
9119;BMP180;4594;50.994;7.126;2023-08-06T13:01:56;99748.00;;;21.90
9119;BMP180;4594;50.994;7.126;2023-08-06T13:04:22;99762.00;;;22.00
9119;BMP180;4594;50.994;7.126;2023-08-06T13:06:48;99757.00;;;22.10
9119;BMP180;4594;50.994;7.126;2023-08-06T13:09:15;99764.00;;;22.10
9119;BMP180;4594;50.994;7.126;2023-08-06T13:11:41;99772.00;;;22.20
9119;BMP180;4594;50.994;7.126;2023-08-06T13:14:12;99786.00;;;22.20
9119;BMP180;4594;50.994;7.126;2023-08-06T13:16:41;99779.00;;;22.30
9119;BMP180;4594;50.994;7.126;2023-08-06T13:19:07;99783.00;;;22.30
9119;BMP180;4594;50.994;7.126;2023-08-06T13:22:19;99787.00;;;22.30
9119;BMP180;4594;50.994;7.126;2023-08-06T13:24:20;99797.00;;;22.30
9119;BMP180;4594;50.994;7.126;2023-08-06T13:26:46;99801.00;;;22.30
9119;BMP180;4594;50.994;7.126;2023-08-06T13:29:11;99801.00;;;22.30
9119;BMP180;4594;50.994;7.126;2023-08-06T13:31:37;99793.00;;;22.30
9119;BMP180;4594;50.994;7.126;2023-08-06T13:34:03;99818.00;;;22.30
9119;BMP180;4594;50.994;7.126;2023-08-06T13:36:29;99813.00;;;22.40
9119;BMP180;4594;50.994;7.126;2023-08-06T13:38:56;99804.00;;;22.30
9119;BMP180;4594;50.994;7.126;2023-08-06T13:41:21;99808.00;;;22.30
9119;BMP180;4594;50.994;7.126;2023-08-06T13:43:47;99806.00;;;22.30
9119;BMP180;4594;50.994;7.126;2023-08-06T13:46:13;99822.00;;;22.30
9119;BMP180;4594;50.994;7.126;2023-08-06T13:48:42;99822.00;;;22.30
9119;BMP180;4594;50.994;7.126;2023-08-06T13:51:10;99827.00;;;22.30
9119;BMP180;4594;50.994;7.126;2023-08-06T13:53:37;99824.00;;;22.30
9119;BMP180;4594;50.994;7.126;2023-08-06T13:56:04;99820.00;;;22.30
9119;BMP180;4594;50.994;7.126;2023-08-06T13:58:30;99825.00;;;22.30
9119;BMP180;4594;50.994;7.126;2023-08-06T14:00:56;99832.00;;;22.30
9119;BMP180;4594;50.994;7.126;2023-08-06T14:03:23;99832.00;;;22.30
9119;BMP180;4594;50.994;7.126;2023-08-06T14:05:48;99840.00;;;22.30
9119;BMP180;4594;50.994;7.126;2023-08-06T14:08:15;99840.00;;;22.30
9119;BMP180;4594;50.994;7.126;2023-08-06T14:10:44;99838.00;;;22.30
9119;BMP180;4594;50.994;7.126;2023-08-06T14:13:10;99840.00;;;22.30
9119;BMP180;4594;50.994;7.126;2023-08-06T14:15:36;99843.00;;;22.40
9119;BMP180;4594;50.994;7.126;2023-08-06T14:18:04;99835.00;;;22.40
9119;BMP180;4594;50.994;7.126;2023-08-06T14:20:30;99836.00;;;22.50
9119;BMP180;4594;50.994;7.126;2023-08-06T14:22:57;99836.00;;;22.50
9119;BMP180;4594;50.994;7.126;2023-08-06T14:25:22;99841.00;;;22.50
9119;BMP180;4594;50.994;7.126;2023-08-06T14:27:48;99849.00;;;22.50
9119;BMP180;4594;50.994;7.126;2023-08-06T14:30:14;99849.00;;;22.50
9119;BMP180;4594;50.994;7.126;2023-08-06T14:32:39;99844.00;;;22.50
9119;BMP180;4594;50.994;7.126;2023-08-06T14:35:05;99839.00;;;22.50
9119;BMP180;4594;50.994;7.126;2023-08-06T14:37:31;99852.00;;;22.50
9119;BMP180;4594;50.994;7.126;2023-08-06T14:39:57;99847.00;;;22.50
9119;BMP180;4594;50.994;7.126;2023-08-06T14:42:22;99842.00;;;22.50
9119;BMP180;4594;50.994;7.126;2023-08-06T14:44:49;99853.00;;;22.50
9119;BMP180;4594;50.994;7.126;2023-08-06T14:47:20;99846.00;;;22.40